createdAt,value
2019-02-02T00:02:27.499Z,18.33
2019-02-02T00:07:28.773Z,21.30
2019-02-02T00:12:30.387Z,27.10
2019-02-02T00:17:31.693Z,17.70
2019-02-02T00:22:33.082Z,19.80
2019-02-02T00:27:41.038Z,22.33
2019-02-02T00:32:37.509Z,17.13
2019-02-02T00:37:38.753Z,15.83
2019-02-02T00:42:40.038Z,19.17
2019-02-02T00:47:41.358Z,18.53
2019-02-02T00:52:42.646Z,15.43
2019-02-02T00:57:52.948Z,14.27
2019-02-02T01:02:47.346Z,13.73
2019-02-02T01:07:49.930Z,14.27
2019-02-02T01:12:51.218Z,14.47
2019-02-02T01:17:52.522Z,14.37
2019-02-02T01:22:53.802Z,13.97
2019-02-02T01:28:04.908Z,16.33
2019-02-02T01:32:58.272Z,15.93
2019-02-02T01:38:00.236Z,38.00
2019-02-02T01:43:01.545Z,34.67
2019-02-02T01:48:02.830Z,24.67
2019-02-02T01:53:04.139Z,22.70
2019-02-02T01:58:16.305Z,25.53
2019-02-02T02:03:12.059Z,17.23
2019-02-02T02:08:13.646Z,17.27
2019-02-02T02:13:14.923Z,17.30
2019-02-02T02:18:16.248Z,18.03
2019-02-02T02:23:17.698Z,19.57
2019-02-02T02:28:27.804Z,22.10
2019-02-02T02:33:22.065Z,24.73
2019-02-02T02:38:23.421Z,28.97
2019-02-02T02:43:24.690Z,28.80
2019-02-02T02:48:25.969Z,26.87
2019-02-02T02:53:27.300Z,27.07
2019-02-02T02:58:40.419Z,24.67
2019-02-02T03:03:31.693Z,26.07
2019-02-02T03:08:33.244Z,22.53
2019-02-02T03:13:34.491Z,21.80
2019-02-02T03:18:35.783Z,19.67
2019-02-02T03:23:37.087Z,16.97
2019-02-02T03:28:38.366Z,20.67
2019-02-02T03:33:39.650Z,19.13
2019-02-02T03:38:41.323Z,21.10
2019-02-02T03:43:42.972Z,18.83
2019-02-02T03:48:44.246Z,20.60
2019-02-02T03:53:45.535Z,22.33
2019-02-02T03:58:46.819Z,21.80
2019-02-02T04:03:48.490Z,19.80
2019-02-02T04:08:49.794Z,23.13
2019-02-02T04:13:51.078Z,18.87
2019-02-02T04:18:52.374Z,19.80
2019-02-02T04:23:53.667Z,18.60
2019-02-02T04:28:54.962Z,18.15
2019-02-02T04:33:56.611Z,14.57
2019-02-02T04:38:57.907Z,14.63
2019-02-02T04:43:59.211Z,14.40
2019-02-02T04:49:00.597Z,15.30
2019-02-02T04:54:02.197Z,16.97
2019-02-02T04:59:03.873Z,17.50
2019-02-02T05:04:05.160Z,19.00
2019-02-02T05:09:06.597Z,20.40
2019-02-02T05:14:07.892Z,21.10
2019-02-02T05:19:09.630Z,25.33
2019-02-02T05:24:10.933Z,21.10
2019-02-02T05:29:12.221Z,25.87
2019-02-02T05:34:13.509Z,25.93
2019-02-02T05:39:14.814Z,26.93
2019-02-02T05:44:16.072Z,28.00
2019-02-02T05:49:17.889Z,25.60
2019-02-02T05:54:19.263Z,26.47
2019-02-02T05:59:20.644Z,29.93
2019-02-02T06:04:22.086Z,26.03
2019-02-02T06:09:23.444Z,29.27
2019-02-02T06:14:24.746Z,33.30
2019-02-02T06:19:26.425Z,29.93
2019-02-02T06:24:27.707Z,31.93
2019-02-02T06:29:29.007Z,27.87
2019-02-02T06:34:30.311Z,26.67
2019-02-02T06:39:31.590Z,28.20
2019-02-02T06:44:32.899Z,31.53
2019-02-02T06:49:34.212Z,31.23
2019-02-02T06:54:35.916Z,28.67
2019-02-02T06:59:37.218Z,24.67
2019-02-02T07:04:38.510Z,22.63
2019-02-02T07:09:40.025Z,29.67
2019-02-02T07:14:41.324Z,34.30
2019-02-02T07:19:42.614Z,31.30
2019-02-02T07:24:43.992Z,22.73
2019-02-02T07:29:45.246Z,24.20
2019-02-02T07:34:46.548Z,25.05
2019-02-02T07:39:48.233Z,23.53
2019-02-02T07:44:49.492Z,26.13
2019-02-02T07:49:50.788Z,23.17
2019-02-02T07:54:52.083Z,21.70
2019-02-02T07:59:53.386Z,22.70
2019-02-02T08:04:54.669Z,20.77
2019-02-02T08:09:56.446Z,30.27
2019-02-02T08:14:57.799Z,28.73
2019-02-02T08:19:59.151Z,28.63
2019-02-02T08:25:00.465Z,26.73
2019-02-02T08:30:02.172Z,24.80
2019-02-02T08:35:05.390Z,21.93
2019-02-02T08:40:10.333Z,19.17
2019-02-02T08:45:12.820Z,20.83
2019-02-02T08:50:26.684Z,18.30
2019-02-02T08:55:28.457Z,17.77
2019-02-02T09:00:30.165Z,16.50
2019-02-02T09:05:31.486Z,19.17
2019-02-02T09:10:32.806Z,11.83
2019-02-02T09:15:34.102Z,11.50
2019-02-02T09:20:37.812Z,11.73
2019-02-02T09:25:39.430Z,10.27
2019-02-02T09:30:40.825Z,11.07
2019-02-02T09:35:42.144Z,11.93
2019-02-02T09:40:43.444Z,10.83
2019-02-02T09:45:44.953Z,8.73
2019-02-02T09:50:46.586Z,11.23
2019-02-02T09:55:47.882Z,8.40
2019-02-02T10:00:49.298Z,8.63
2019-02-02T10:05:50.606Z,8.23
2019-02-02T10:10:52.202Z,8.60
2019-02-02T10:15:53.528Z,8.13
2019-02-02T10:21:03.747Z,9.03
2019-02-02T10:25:58.384Z,9.63
2019-02-02T10:30:59.923Z,7.93
2019-02-02T10:36:01.224Z,8.27
2019-02-02T10:41:02.891Z,7.50
2019-02-02T10:46:04.425Z,7.47
2019-02-02T10:51:05.726Z,7.63
2019-02-02T10:56:07.129Z,8.90
2019-02-02T11:01:08.434Z,8.37
2019-02-02T11:06:29.871Z,7.60
2019-02-02T11:11:31.204Z,7.70
2019-02-02T11:16:33.043Z,8.17
2019-02-02T11:21:36.246Z,9.27
2019-02-02T11:26:38.428Z,7.80
2019-02-02T11:31:40.358Z,7.70
2019-02-02T11:36:43.759Z,7.77
2019-02-02T11:41:45.141Z,8.70
2019-02-02T11:46:46.625Z,7.80
2019-02-02T11:51:47.915Z,8.33
2019-02-02T11:56:49.208Z,8.30
2019-02-02T12:01:50.619Z,10.03
2019-02-02T12:06:52.038Z,9.37
2019-02-02T12:11:53.574Z,9.50
2019-02-02T12:16:54.865Z,8.73
2019-02-02T12:21:56.474Z,10.17
2019-02-02T12:26:58.395Z,10.13
2019-02-02T12:31:59.726Z,9.23
2019-02-02T12:37:01.024Z,10.57
2019-02-02T12:42:02.544Z,11.90
2019-02-02T12:47:04.057Z,9.70
2019-02-02T12:52:07.400Z,10.77
2019-02-02T12:57:08.691Z,9.30
2019-02-02T13:02:10.439Z,10.07
2019-02-02T13:07:12.319Z,10.93
2019-02-02T13:12:13.882Z,8.90
2019-02-02T13:17:15.765Z,8.93
2019-02-02T13:22:17.293Z,8.87
2019-02-02T13:27:18.942Z,10.30
2019-02-02T13:32:20.245Z,8.70
2019-02-02T13:37:21.778Z,9.87
2019-02-02T13:42:23.450Z,8.87
2019-02-02T13:47:24.990Z,11.37
2019-02-02T13:52:26.714Z,10.17
2019-02-02T13:57:28.586Z,10.13
2019-02-02T14:02:30.258Z,9.23
2019-02-02T14:07:33.052Z,9.80
2019-02-02T14:12:47.267Z,10.33
2019-02-02T14:17:49.000Z,10.40
2019-02-02T14:22:50.853Z,13.47
2019-02-02T14:27:52.652Z,25.50
2019-02-02T14:32:54.824Z,28.70
2019-02-02T14:37:56.615Z,19.03
2019-02-02T14:42:57.933Z,21.20
2019-02-02T14:47:59.589Z,13.10
2019-02-02T14:53:01.117Z,16.60
2019-02-02T14:58:02.854Z,14.20
2019-02-02T15:03:04.266Z,14.70
2019-02-02T15:08:05.812Z,15.00
2019-02-02T15:13:07.611Z,14.50
2019-02-02T15:18:09.785Z,15.50
2019-02-02T15:23:11.324Z,15.10
2019-02-02T15:28:12.983Z,14.27
2019-02-02T15:33:14.255Z,15.57
2019-02-02T15:38:18.900Z,17.60
2019-02-02T15:43:22.066Z,16.37
2019-02-02T15:48:22.376Z,14.13
2019-02-02T15:53:24.148Z,15.90
2019-02-02T15:58:25.552Z,17.27
2019-02-02T16:03:26.874Z,28.93
2019-02-02T16:08:28.425Z,18.33
2019-02-02T16:13:29.764Z,16.97
2019-02-02T16:18:31.076Z,16.53
2019-02-02T16:23:32.372Z,18.93
2019-02-02T16:28:34.791Z,18.23
2019-02-02T16:33:36.672Z,18.20
2019-02-02T16:38:38.451Z,18.23
2019-02-02T16:43:40.858Z,21.93
2019-02-02T16:48:42.853Z,22.60
2019-02-02T16:53:44.633Z,19.13
2019-02-02T16:58:47.423Z,23.03
2019-02-02T17:03:49.835Z,25.77
2019-02-02T17:08:51.382Z,26.37
2019-02-02T17:13:52.940Z,25.27
2019-02-02T17:18:54.847Z,23.27
2019-02-02T17:23:56.130Z,25.30
2019-02-02T17:28:57.901Z,24.40
2019-02-02T17:33:59.469Z,24.10
2019-02-02T17:39:01.042Z,20.97
2019-02-02T17:44:03.041Z,20.93
2019-02-02T17:49:04.618Z,23.17
2019-02-02T17:54:06.774Z,19.97
2019-02-02T17:59:08.378Z,19.23
2019-02-02T18:04:09.890Z,15.90
2019-02-02T18:09:11.533Z,18.10
2019-02-02T18:14:13.544Z,20.90
2019-02-02T18:19:15.083Z,18.43
2019-02-02T18:24:17.858Z,23.53
2019-02-02T18:29:20.664Z,15.73
2019-02-02T18:34:23.086Z,18.23
2019-02-02T18:39:25.726Z,15.23
2019-02-02T18:44:28.458Z,14.77
2019-02-02T18:49:30.914Z,15.17
2019-02-02T18:54:33.685Z,15.30
2019-02-02T18:59:38.021Z,15.53
2019-02-02T19:04:40.291Z,16.63
2019-02-02T19:09:42.717Z,17.17
2019-02-02T19:14:45.214Z,17.00
2019-02-02T19:19:47.915Z,17.87
2019-02-02T19:24:50.745Z,17.57
2019-02-02T19:29:53.565Z,18.67
2019-02-02T19:34:57.340Z,18.70
2019-02-02T19:40:00.504Z,18.63
2019-02-02T19:45:04.970Z,19.57
2019-02-02T19:50:13.554Z,22.73
2019-02-02T19:55:17.037Z,22.93
2019-02-02T20:00:22.084Z,22.10
2019-02-02T20:05:28.627Z,25.00
2019-02-02T20:10:30.095Z,22.47
2019-02-02T20:15:33.894Z,23.70
2019-02-02T20:20:37.194Z,22.77
2019-02-02T20:25:39.840Z,22.80
2019-02-02T20:30:43.226Z,21.00
2019-02-02T20:35:48.382Z,17.73
2019-02-02T20:40:51.297Z,20.00
2019-02-02T20:45:54.398Z,18.57
2019-02-02T20:50:57.720Z,21.43
2019-02-02T20:56:01.609Z,20.27
2019-02-02T21:01:04.711Z,18.42
2019-02-02T21:06:07.778Z,16.60
2019-02-02T21:11:10.773Z,16.63
2019-02-02T21:16:14.270Z,17.47
2019-02-02T21:21:17.593Z,18.03
2019-02-02T21:26:20.010Z,16.77
2019-02-02T21:31:23.059Z,18.70
2019-02-02T21:36:25.517Z,16.73
2019-02-02T21:41:28.015Z,18.27
2019-02-02T21:46:30.308Z,17.70
2019-02-02T21:51:33.015Z,19.37
2019-02-02T21:56:35.309Z,18.13
2019-02-02T22:01:37.155Z,21.53
2019-02-02T22:06:39.269Z,18.17
2019-02-02T22:11:40.832Z,18.80
2019-02-02T22:16:42.717Z,22.67
2019-02-02T22:21:44.391Z,21.97
2019-02-02T22:26:45.669Z,19.67
2019-02-02T22:31:48.433Z,17.70
2019-02-02T22:36:49.699Z,17.00
2019-02-02T22:41:51.005Z,16.45
2019-02-02T22:46:52.781Z,17.33
2019-02-02T22:51:54.768Z,16.20
2019-02-02T22:56:56.433Z,13.67
2019-02-02T23:01:58.425Z,15.80
2019-02-02T23:07:06.681Z,13.47
2019-02-02T23:12:21.061Z,16.10
2019-02-02T23:17:22.701Z,14.70
2019-02-02T23:22:24.022Z,13.87
2019-02-02T23:27:25.399Z,16.23
2019-02-02T23:32:27.098Z,14.87
2019-02-02T23:37:28.724Z,15.17
2019-02-02T23:42:30.010Z,13.77
2019-02-02T23:47:31.318Z,16.03
2019-02-02T23:52:32.643Z,14.33
2019-02-02T23:57:34.253Z,14.17
